LKCR weather

Chrudim Airport
Chrudim, Pardubice Region, Czechia

Public forecast

Using degrees Celsius for public forecast. Weather courtesy of forecast.io.

METAR (pilot weather report)

Closest report is Pardubice Airport, 4.9 nm (9.1 km) NNW. Retrieved 2019/05/21 12:00 UTC (2 minutes ago):

LKPD 211200Z 21004KT 140V260 9999 BKN029 BKN060 18/11 Q1005 NOSIG

TAF (pilot weather forecast)

Closest forecast is Pardubice Airport, 4.9 nm (9.1 km) NNW. Retrieved 2019/05/21 12:06 UTC (0 seconds ago):

TAF LKPD 211100Z 2112/2212 10006KT 9999 BKN035 PROB40 TEMPO 2112/2118 7000 SHRA BKN025TCU BECMG 2120/2122 27006KT BECMG 2200/2203 28016KT 6000 RA BKN017